Time;durP1;ratioP1;P1;durP2;ratioP2;P2;SDS_P1;SDS_P2;PMS_P1;PMS_P2;Temp;Humidity;BMP_temperature;BMP_pressure;BME280_temperature;BME280_humidity;BME280_pressure;Samples;Min_cycle;Max_cycle;Signal;HPM_P1;HPM_P2
2022/07/30 00:02:01;;;;;;;;;;;20.30;69.80;;;;;;5050438;28;20075;-68
2022/07/30 00:04:26;;;;;;;;;;;20.20;69.80;;;;;;5050078;28;20020;-67
2022/07/30 00:06:52;;;;;;;;;;;20.20;69.90;;;;;;5051343;28;19997;-67
2022/07/30 00:09:17;;;;;;;;;;;20.10;70.00;;;;;;5063252;28;19991;-68
2022/07/30 00:11:43;;;;;;;;;;;20.10;70.10;;;;;;5050891;28;20007;-68
2022/07/30 00:14:09;;;;;;;;;;;20.00;70.30;;;;;;5051685;28;19924;-68
2022/07/30 00:16:35;;;;;;;;;;;19.90;70.50;;;;;;5050378;28;19957;-67
2022/07/30 00:19:01;;;;;;;;;;;19.80;71.50;;;;;;5050639;28;20268;-67
2022/07/30 00:21:26;;;;;;;;;;;19.80;71.30;;;;;;5065316;28;19920;-67
2022/07/30 00:23:52;;;;;;;;;;;19.80;71.50;;;;;;5050639;28;19917;-67
2022/07/30 00:26:17;;;;;;;;;;;19.70;71.50;;;;;;5050520;28;19916;-69
2022/07/30 00:28:43;;;;;;;;;;;19.70;72.00;;;;;;5050353;28;19913;-68
2022/07/30 00:31:08;;;;;;;;;;;19.70;72.30;;;;;;5049985;28;19916;-68
2022/07/30 00:33:34;;;;;;;;;;;19.60;72.40;;;;;;5036885;28;19913;-68
2022/07/30 00:35:59;;;;;;;;;;;19.60;72.50;;;;;;5050153;28;20695;-68
2022/07/30 00:38:25;;;;;;;;;;;19.60;72.50;;;;;;5066177;28;19912;-68
2022/07/30 00:40:51;;;;;;;;;;;19.60;72.50;;;;;;5049602;28;19912;-67
2022/07/30 00:43:16;;;;;;;;;;;19.60;72.90;;;;;;5050419;28;19947;-68
2022/07/30 00:45:42;;;;;;;;;;;19.60;72.80;;;;;;5065214;28;19982;-68
2022/07/30 00:48:09;;;;;;;;;;;19.60;73.40;;;;;;5050851;28;19920;-68
2022/07/30 00:50:35;;;;;;;;;;;19.60;73.50;;;;;;5050218;28;20353;-68
2022/07/30 00:53:00;;;;;;;;;;;19.60;73.50;;;;;;5041812;28;20011;-68
2022/07/30 00:55:26;;;;;;;;;;;19.60;73.70;;;;;;5065490;28;19926;-68
2022/07/30 00:57:51;;;;;;;;;;;19.50;74.10;;;;;;5049973;28;20364;-68
2022/07/30 01:00:17;;;;;;;;;;;19.50;74.10;;;;;;5044702;28;19998;-67
2022/07/30 01:02:43;;;;;;;;;;;19.50;74.10;;;;;;5045415;28;19917;-67
2022/07/30 01:05:09;;;;;;;;;;;19.50;74.00;;;;;;5049524;28;20008;-68
2022/07/30 01:07:34;;;;;;;;;;;19.60;74.10;;;;;;5042664;28;20334;-69
2022/07/30 01:10:00;;;;;;;;;;;19.60;74.10;;;;;;5050010;28;19912;-67
2022/07/30 01:12:26;;;;;;;;;;;19.60;74.20;;;;;;5051159;28;19927;-67
2022/07/30 01:14:54;;;;;;;;;;;19.60;74.20;;;;;;5069269;28;19920;-68
2022/07/30 01:17:19;;;;;;;;;;;19.60;74.40;;;;;;5054504;28;19909;-68
2022/07/30 01:19:54;;;;;;;;;;;19.60;74.30;;;;;;5053826;28;20355;-68
2022/07/30 01:22:32;;;;;;;;;;;19.60;74.30;;;;;;5053557;28;20339;-67
2022/07/30 01:24:57;;;;;;;;;;;19.50;74.40;;;;;;5040298;28;19913;-67
2022/07/30 01:27:24;;;;;;;;;;;19.50;74.40;;;;;;5052543;28;19916;-68
2022/07/30 01:29:51;;;;;;;;;;;19.50;74.60;;;;;;5051147;28;19924;-67
2022/07/30 01:32:18;;;;;;;;;;;19.50;74.70;;;;;;5043736;28;20402;-68
2022/07/30 01:34:44;;;;;;;;;;;19.50;74.90;;;;;;5053475;28;20008;-68
2022/07/30 01:37:10;;;;;;;;;;;19.40;75.30;;;;;;5051777;28;19924;-68
2022/07/30 01:39:36;;;;;;;;;;;19.40;75.30;;;;;;5052969;28;20275;-67
2022/07/30 01:42:04;;;;;;;;;;;19.40;75.30;;;;;;5068649;28;19916;-68
2022/07/30 01:44:30;;;;;;;;;;;19.40;76.00;;;;;;5052034;28;19920;-68
2022/07/30 01:46:56;;;;;;;;;;;19.40;75.50;;;;;;5053747;28;19908;-68
2022/07/30 01:49:22;;;;;;;;;;;19.40;75.70;;;;;;5053615;28;19915;-67
2022/07/30 01:51:49;;;;;;;;;;;19.40;75.80;;;;;;5052739;28;20009;-68
2022/07/30 01:54:16;;;;;;;;;;;19.40;75.90;;;;;;5053240;28;20304;-68
2022/07/30 01:56:43;;;;;;;;;;;19.30;76.20;;;;;;5052786;28;19935;-68
2022/07/30 01:59:09;;;;;;;;;;;19.30;76.40;;;;;;5053081;28;19912;-68
2022/07/30 02:01:35;;;;;;;;;;;19.30;76.50;;;;;;5052685;28;20020;-68
2022/07/30 02:04:01;;;;;;;;;;;19.30;76.40;;;;;;5051648;28;20004;-68
2022/07/30 02:06:32;;;;;;;;;;;19.30;76.30;;;;;;5052300;28;19917;-68
2022/07/30 02:08:59;;;;;;;;;;;19.30;76.30;;;;;;5051841;28;20006;-68
2022/07/30 02:14:29;;;;;;;;;;;19.40;76.20;;;;;;5052196;28;19998;-68
2022/07/30 02:16:57;;;;;;;;;;;19.30;76.20;;;;;;5045806;28;20003;-68
2022/07/30 02:19:23;;;;;;;;;;;19.30;76.40;;;;;;5051971;28;20389;-68
2022/07/30 02:21:57;;;;;;;;;;;19.30;76.70;;;;;;5052163;28;19915;-68
2022/07/30 02:24:24;;;;;;;;;;;19.30;76.90;;;;;;5050735;28;19924;-69
2022/07/30 02:26:53;;;;;;;;;;;19.20;76.90;;;;;;5045869;28;19908;-68
2022/07/30 02:29:19;;;;;;;;;;;19.20;76.80;;;;;;5067697;28;19908;-68
2022/07/30 02:31:45;;;;;;;;;;;19.20;76.80;;;;;;5049565;28;19986;-68
2022/07/30 02:34:12;;;;;;;;;;;19.20;77.00;;;;;;5052119;28;20616;-68
2022/07/30 02:36:38;;;;;;;;;;;19.30;77.10;;;;;;5048234;28;19913;-68
2022/07/30 02:39:03;;;;;;;;;;;19.20;77.00;;;;;;5051689;28;20321;-68
2022/07/30 02:41:30;;;;;;;;;;;19.30;76.80;;;;;;5050865;28;19923;-68
2022/07/30 02:43:56;;;;;;;;;;;19.30;76.90;;;;;;5051498;28;19967;-68
2022/07/30 02:46:22;;;;;;;;;;;19.30;76.90;;;;;;5065954;28;19947;-68
2022/07/30 02:48:49;;;;;;;;;;;19.30;76.70;;;;;;5051770;28;19913;-68
2022/07/30 02:51:15;;;;;;;;;;;19.30;76.70;;;;;;5051564;28;19962;-68
2022/07/30 02:53:42;;;;;;;;;;;19.30;76.70;;;;;;5050821;28;19919;-68
2022/07/30 02:56:08;;;;;;;;;;;19.30;76.90;;;;;;5045971;28;19967;-68
2022/07/30 02:58:34;;;;;;;;;;;19.20;77.20;;;;;;5066312;28;19909;-67
2022/07/30 03:01:01;;;;;;;;;;;19.20;77.20;;;;;;5055256;28;19917;-67
2022/07/30 03:03:28;;;;;;;;;;;19.20;77.20;;;;;;5052025;28;20417;-68
2022/07/30 03:05:54;;;;;;;;;;;19.20;77.10;;;;;;5050081;28;19919;-67
2022/07/30 03:08:20;;;;;;;;;;;19.20;77.30;;;;;;5051787;28;19920;-67
2022/07/30 03:10:47;;;;;;;;;;;19.10;77.70;;;;;;5050787;28;19920;-66
2022/07/30 03:13:13;;;;;;;;;;;19.10;77.70;;;;;;5041716;28;19970;-66
2022/07/30 03:15:44;;;;;;;;;;;19.10;77.70;;;;;;5040815;28;19909;-66
2022/07/30 03:18:12;;;;;;;;;;;19.10;77.80;;;;;;5049888;28;20444;-69
2022/07/30 03:20:37;;;;;;;;;;;19.10;77.70;;;;;;5051264;28;19913;-69
2022/07/30 03:23:04;;;;;;;;;;;19.10;77.60;;;;;;5060044;28;19920;-69
2022/07/30 03:25:30;;;;;;;;;;;19.10;77.60;;;;;;5057979;28;19959;-69
2022/07/30 03:27:58;;;;;;;;;;;19.10;77.40;;;;;;5051016;28;20499;-69
2022/07/30 03:30:24;;;;;;;;;;;19.10;77.30;;;;;;5051130;28;19913;-69
2022/07/30 03:32:51;;;;;;;;;;;19.20;77.20;;;;;;5049543;28;19913;-69
2022/07/30 03:35:17;;;;;;;;;;;19.10;77.40;;;;;;5049966;28;20030;-69
2022/07/30 03:37:43;;;;;;;;;;;19.10;77.70;;;;;;5046031;28;19916;-69
2022/07/30 03:40:08;;;;;;;;;;;19.10;77.80;;;;;;5046180;28;19908;-69
2022/07/30 03:42:34;;;;;;;;;;;19.10;77.90;;;;;;5049248;28;19919;-69
2022/07/30 03:45:02;;;;;;;;;;;19.00;78.10;;;;;;5050743;28;20343;-68
2022/07/30 03:47:29;;;;;;;;;;;19.00;78.20;;;;;;5042374;28;19940;-66
2022/07/30 03:49:55;;;;;;;;;;;19.00;78.20;;;;;;5049987;28;20342;-68
2022/07/30 03:52:20;;;;;;;;;;;19.00;78.20;;;;;;5047644;28;19909;-68
2022/07/30 03:54:46;;;;;;;;;;;19.00;78.20;;;;;;5064532;28;19959;-68
2022/07/30 03:57:12;;;;;;;;;;;19.00;78.20;;;;;;5049969;28;19916;-68
2022/07/30 03:59:37;;;;;;;;;;;19.00;78.30;;;;;;5039858;28;20330;-68
2022/07/30 04:02:03;;;;;;;;;;;19.00;78.40;;;;;;5050535;28;19909;-68
2022/07/30 04:04:29;;;;;;;;;;;19.00;78.30;;;;;;5064048;28;19934;-68
2022/07/30 04:06:55;;;;;;;;;;;19.00;78.20;;;;;;5049480;28;20288;-68
2022/07/30 04:09:21;;;;;;;;;;;19.00;78.30;;;;;;5050130;28;19939;-66
2022/07/30 04:11:46;;;;;;;;;;;19.10;78.10;;;;;;5053948;28;19967;-69
2022/07/30 04:14:12;;;;;;;;;;;19.10;78.00;;;;;;5043047;28;20070;-68
2022/07/30 04:16:40;;;;;;;;;;;19.10;78.00;;;;;;5050570;28;19909;-68
2022/07/30 04:19:08;;;;;;;;;;;19.00;78.10;;;;;;5051121;28;19932;-69
2022/07/30 04:21:34;;;;;;;;;;;19.00;78.10;;;;;;5049719;28;19919;-66
2022/07/30 04:24:00;;;;;;;;;;;19.00;77.90;;;;;;5050387;28;19920;-69
2022/07/30 04:26:28;;;;;;;;;;;19.10;77.80;;;;;;5050508;28;19909;-66
2022/07/30 04:28:54;;;;;;;;;;;19.10;77.90;;;;;;5049852;28;19905;-66
2022/07/30 04:31:20;;;;;;;;;;;19.10;77.80;;;;;;5046607;28;19928;-67
2022/07/30 04:33:46;;;;;;;;;;;19.10;77.80;;;;;;5049520;28;20337;-67
2022/07/30 04:36:11;;;;;;;;;;;19.10;77.70;;;;;;5050236;28;19991;-67
2022/07/30 04:38:37;;;;;;;;;;;19.10;77.70;;;;;;5059302;28;19934;-68
2022/07/30 04:41:02;;;;;;;;;;;19.00;77.70;;;;;;5050088;28;19967;-67
2022/07/30 04:43:28;;;;;;;;;;;19.10;77.70;;;;;;5050778;28;19913;-68
2022/07/30 04:45:53;;;;;;;;;;;19.10;77.60;;;;;;5048402;28;19916;-68
2022/07/30 04:48:19;;;;;;;;;;;19.10;77.50;;;;;;5049597;28;19920;-68
2022/07/30 04:50:48;;;;;;;;;;;19.10;77.50;;;;;;5052669;28;20434;-68
2022/07/30 04:53:13;;;;;;;;;;;19.10;77.60;;;;;;5054539;28;19915;-68
2022/07/30 04:55:40;;;;;;;;;;;19.00;77.70;;;;;;5054247;28;19991;-68
2022/07/30 04:58:07;;;;;;;;;;;19.00;77.80;;;;;;5050303;28;19913;-68
2022/07/30 05:00:34;;;;;;;;;;;19.10;77.80;;;;;;5054691;28;19939;-68
2022/07/30 05:03:01;;;;;;;;;;;19.10;77.70;;;;;;5053212;28;20016;-68
2022/07/30 05:05:27;;;;;;;;;;;19.10;77.80;;;;;;5052608;28;19904;-67
2022/07/30 05:07:53;;;;;;;;;;;19.10;77.80;;;;;;5053293;28;19935;-68
2022/07/30 05:10:18;;;;;;;;;;;19.10;77.90;;;;;;5069437;28;19911;-68
2022/07/30 05:12:44;;;;;;;;;;;19.10;77.90;;;;;;5053589;28;20039;-68
2022/07/30 05:15:10;;;;;;;;;;;19.20;77.70;;;;;;5054544;28;19915;-68
2022/07/30 05:17:36;;;;;;;;;;;19.20;77.60;;;;;;5045056;28;19987;-68
2022/07/30 05:20:01;;;;;;;;;;;19.20;77.70;;;;;;5050109;28;19911;-68
2022/07/30 05:22:29;;;;;;;;;;;19.20;77.70;;;;;;5044923;28;19916;-68
2022/07/30 05:24:55;;;;;;;;;;;19.20;77.60;;;;;;5053424;28;19977;-68
2022/07/30 05:27:21;;;;;;;;;;;19.30;77.50;;;;;;5042731;28;19935;-68
2022/07/30 05:29:46;;;;;;;;;;;19.30;77.60;;;;;;5054103;28;19909;-68
2022/07/30 05:32:12;;;;;;;;;;;19.40;77.60;;;;;;5054342;28;20259;-67
2022/07/30 05:34:38;;;;;;;;;;;19.40;77.50;;;;;;5052626;28;19915;-68
2022/07/30 05:37:03;;;;;;;;;;;19.40;77.40;;;;;;5052715;28;19913;-68
2022/07/30 05:39:29;;;;;;;;;;;19.40;77.30;;;;;;5052502;28;20155;-68
2022/07/30 05:41:54;;;;;;;;;;;19.50;77.20;;;;;;5053639;28;19912;-68
2022/07/30 05:44:20;;;;;;;;;;;19.50;77.10;;;;;;5052473;28;19991;-68
2022/07/30 05:46:46;;;;;;;;;;;19.60;76.90;;;;;;5053581;28;19909;-67
2022/07/30 05:49:11;;;;;;;;;;;19.60;76.90;;;;;;5066071;28;19916;-68
2022/07/30 05:51:37;;;;;;;;;;;19.60;76.80;;;;;;5069104;28;19951;-68
2022/07/30 05:54:03;;;;;;;;;;;19.60;76.50;;;;;;5050540;28;19991;-68
2022/07/30 05:56:29;;;;;;;;;;;19.70;76.50;;;;;;5052524;28;20016;-68
2022/07/30 05:58:54;;;;;;;;;;;19.70;76.50;;;;;;5052840;28;20007;-68
2022/07/30 06:01:20;;;;;;;;;;;19.70;76.40;;;;;;5052680;28;19940;-68
2022/07/30 06:03:45;;;;;;;;;;;19.80;76.20;;;;;;5053450;28;19915;-68
2022/07/30 06:06:11;;;;;;;;;;;19.80;76.10;;;;;;5051650;28;19913;-68
2022/07/30 06:08:37;;;;;;;;;;;19.80;76.10;;;;;;5053000;28;19922;-68
2022/07/30 06:11:03;;;;;;;;;;;19.90;75.90;;;;;;5051767;28;19916;-68
2022/07/30 06:13:29;;;;;;;;;;;19.90;75.60;;;;;;5068241;28;19966;-68
2022/07/30 06:15:54;;;;;;;;;;;20.00;75.40;;;;;;5052416;28;19912;-68
2022/07/30 06:18:20;;;;;;;;;;;20.00;75.30;;;;;;5047418;28;19963;-68
2022/07/30 06:20:45;;;;;;;;;;;20.10;75.10;;;;;;5042595;28;20291;-68
2022/07/30 06:23:11;;;;;;;;;;;20.10;75.00;;;;;;5052502;28;19920;-68
2022/07/30 06:25:36;;;;;;;;;;;20.20;74.80;;;;;;5052569;28;19916;-68
2022/07/30 06:28:02;;;;;;;;;;;20.10;74.70;;;;;;5051296;28;19924;-68
2022/07/30 06:30:28;;;;;;;;;;;20.10;74.80;;;;;;5052531;28;19954;-68
2022/07/30 06:32:54;;;;;;;;;;;20.10;74.80;;;;;;5052562;28;20007;-68
2022/07/30 06:35:20;;;;;;;;;;;20.10;74.60;;;;;;5051809;28;20007;-68
2022/07/30 06:37:45;;;;;;;;;;;20.20;74.50;;;;;;5052646;28;20317;-68
2022/07/30 06:40:11;;;;;;;;;;;20.20;74.30;;;;;;5051529;28;20012;-68
2022/07/30 06:42:37;;;;;;;;;;;20.20;74.10;;;;;;5068111;28;19921;-68
2022/07/30 06:45:02;;;;;;;;;;;20.20;74.00;;;;;;5052006;28;20619;-68
2022/07/30 06:47:28;;;;;;;;;;;20.30;73.80;;;;;;5058173;28;19912;-68
2022/07/30 06:49:54;;;;;;;;;;;20.30;73.70;;;;;;5036770;28;19916;-68
2022/07/30 06:52:20;;;;;;;;;;;20.30;73.60;;;;;;5065069;28;19916;-66
2022/07/30 06:54:47;;;;;;;;;;;20.40;73.50;;;;;;5045902;28;20271;-66
2022/07/30 06:57:13;;;;;;;;;;;20.40;73.40;;;;;;5052545;28;19913;-66
2022/07/30 06:59:39;;;;;;;;;;;20.50;73.00;;;;;;5051746;28;19931;-68
2022/07/30 07:02:04;;;;;;;;;;;20.60;72.50;;;;;;5052295;28;20367;-68
2022/07/30 07:04:31;;;;;;;;;;;20.70;72.30;;;;;;5046044;28;19940;-68
2022/07/30 07:06:57;;;;;;;;;;;20.80;72.20;;;;;;5052035;28;19912;-68
2022/07/30 07:09:22;;;;;;;;;;;20.80;71.90;;;;;;5049354;28;19984;-68
2022/07/30 07:11:48;;;;;;;;;;;20.80;71.80;;;;;;5051551;28;19917;-68
2022/07/30 07:14:13;;;;;;;;;;;20.80;71.30;;;;;;5050883;28;19919;-67
2022/07/30 07:16:39;;;;;;;;;;;20.90;71.10;;;;;;5038271;28;19919;-66
2022/07/30 07:19:04;;;;;;;;;;;21.00;71.30;;;;;;5050929;28;19987;-67
2022/07/30 07:21:30;;;;;;;;;;;21.00;70.30;;;;;;5051798;28;19967;-67
2022/07/30 07:23:56;;;;;;;;;;;21.20;69.70;;;;;;5044621;28;19913;-67
2022/07/30 07:26:21;;;;;;;;;;;21.30;69.00;;;;;;5055631;28;19924;-67
2022/07/30 07:28:47;;;;;;;;;;;21.40;68.50;;;;;;5066263;28;19913;-67
2022/07/30 07:31:12;;;;;;;;;;;21.40;67.60;;;;;;5050802;28;19962;-67
2022/07/30 07:33:39;;;;;;;;;;;21.50;67.10;;;;;;5038494;28;19959;-67
2022/07/30 07:36:05;;;;;;;;;;;21.50;67.10;;;;;;5049612;28;19912;-67
2022/07/30 07:38:31;;;;;;;;;;;21.60;66.30;;;;;;5041106;28;19956;-68
2022/07/30 07:40:57;;;;;;;;;;;21.60;65.60;;;;;;5042375;28;20364;-68
2022/07/30 07:43:24;;;;;;;;;;;21.60;65.60;;;;;;5042569;28;19917;-68
2022/07/30 07:45:50;;;;;;;;;;;21.60;65.10;;;;;;5054318;28;19918;-68
2022/07/30 07:48:16;;;;;;;;;;;21.60;64.90;;;;;;5052143;28;19909;-69
2022/07/30 07:50:41;;;;;;;;;;;21.70;64.60;;;;;;5065318;28;19970;-68
2022/07/30 07:53:07;;;;;;;;;;;21.80;64.50;;;;;;5035979;28;20364;-69
2022/07/30 07:55:32;;;;;;;;;;;21.90;64.50;;;;;;5034361;28;19992;-69
2022/07/30 07:57:58;;;;;;;;;;;22.00;64.10;;;;;;5040134;28;19920;-68
2022/07/30 08:00:23;;;;;;;;;;;22.10;64.10;;;;;;5046352;28;19986;-68
2022/07/30 08:02:49;;;;;;;;;;;22.20;64.00;;;;;;5039017;28;20388;-68
2022/07/30 08:05:15;;;;;;;;;;;22.10;63.10;;;;;;5041766;28;19908;-68
2022/07/30 08:07:41;;;;;;;;;;;22.10;63.10;;;;;;5046190;28;19908;-68
2022/07/30 08:10:07;;;;;;;;;;;22.10;63.30;;;;;;5055156;28;19916;-68
2022/07/30 08:12:33;;;;;;;;;;;22.20;63.20;;;;;;5042438;28;19924;-69
2022/07/30 08:14:59;;;;;;;;;;;22.30;63.10;;;;;;5044589;28;19908;-68
2022/07/30 08:17:24;;;;;;;;;;;22.40;62.80;;;;;;5040428;28;19917;-68
2022/07/30 08:19:50;;;;;;;;;;;22.40;62.00;;;;;;5043151;28;20046;-69
2022/07/30 08:22:15;;;;;;;;;;;22.50;61.90;;;;;;5039706;28;19928;-69
2022/07/30 08:24:41;;;;;;;;;;;22.50;61.70;;;;;;5054261;28;20004;-68
2022/07/30 08:27:07;;;;;;;;;;;22.60;61.50;;;;;;5034819;28;20010;-68
2022/07/30 08:29:33;;;;;;;;;;;22.60;61.20;;;;;;5039629;28;20378;-68
2022/07/30 08:31:58;;;;;;;;;;;22.70;61.30;;;;;;5034781;28;19908;-68
2022/07/30 08:34:24;;;;;;;;;;;22.80;61.20;;;;;;5044178;28;19924;-68
2022/07/30 08:36:49;;;;;;;;;;;22.80;60.20;;;;;;5041781;28;19970;-68
2022/07/30 08:39:15;;;;;;;;;;;22.90;59.80;;;;;;5048585;28;19916;-68
2022/07/30 08:41:41;;;;;;;;;;;23.00;59.20;;;;;;5050485;28;19913;-68
2022/07/30 08:44:10;;;;;;;;;;;23.00;58.50;;;;;;5033055;28;19916;-68
2022/07/30 08:46:39;;;;;;;;;;;23.10;58.60;;;;;;5043022;28;19909;-68
2022/07/30 08:49:05;;;;;;;;;;;23.20;58.00;;;;;;5047046;28;19908;-68
2022/07/30 08:51:31;;;;;;;;;;;23.20;58.40;;;;;;5041155;28;19916;-68
2022/07/30 08:53:57;;;;;;;;;;;23.30;58.50;;;;;;5042775;28;19909;-68
2022/07/30 08:56:23;;;;;;;;;;;23.30;57.20;;;;;;5039104;28;20364;-68
2022/07/30 08:58:48;;;;;;;;;;;23.40;57.60;;;;;;5038935;28;19924;-68
2022/07/30 09:01:14;;;;;;;;;;;23.50;57.20;;;;;;5043459;28;19913;-68
2022/07/30 09:03:39;;;;;;;;;;;23.60;57.50;;;;;;5035643;28;19960;-68
2022/07/30 09:06:05;;;;;;;;;;;23.70;56.90;;;;;;5041616;28;19960;-68
2022/07/30 09:08:31;;;;;;;;;;;23.60;56.80;;;;;;5053618;28;20380;-68
2022/07/30 09:10:57;;;;;;;;;;;23.60;56.40;;;;;;5042811;28;19909;-67
2022/07/30 09:13:31;;;;;;;;;;;23.70;57.20;;;;;;5037950;28;19965;-66
2022/07/30 09:15:56;;;;;;;;;;;23.80;55.10;;;;;;5049629;28;20368;-67
2022/07/30 09:18:32;;;;;;;;;;;23.80;54.90;;;;;;5059647;28;19920;-67
2022/07/30 09:20:59;;;;;;;;;;;23.90;55.00;;;;;;5043383;28;20360;-67
2022/07/30 09:23:25;;;;;;;;;;;24.00;54.80;;;;;;5033233;28;19920;-66
2022/07/30 09:25:50;;;;;;;;;;;24.10;54.70;;;;;;5039287;28;19913;-67
2022/07/30 09:28:25;;;;;;;;;;;24.20;54.70;;;;;;5037762;28;19913;-67
2022/07/30 09:30:54;;;;;;;;;;;24.40;54.90;;;;;;5032247;28;20002;-67
2022/07/30 09:33:37;;;;;;;;;;;24.50;54.10;;;;;;5053193;28;19952;-67
2022/07/30 09:36:08;;;;;;;;;;;24.60;53.40;;;;;;5038138;28;19920;-67
2022/07/30 09:38:46;;;;;;;;;;;24.60;52.60;;;;;;5046986;28;20046;-67
2022/07/30 09:41:13;;;;;;;;;;;24.70;52.10;;;;;;5067271;28;19944;-67
2022/07/30 09:43:46;;;;;;;;;;;24.80;52.20;;;;;;5045126;28;19947;-67
2022/07/30 09:46:12;;;;;;;;;;;24.90;51.50;;;;;;5048747;28;20356;-67
2022/07/30 09:48:37;;;;;;;;;;;24.80;50.80;;;;;;5041735;28;19924;-67
2022/07/30 09:51:03;;;;;;;;;;;24.80;51.10;;;;;;5041334;28;19913;-67
2022/07/30 09:53:30;;;;;;;;;;;24.80;51.50;;;;;;5044480;28;19922;-67
2022/07/30 09:55:56;;;;;;;;;;;24.90;51.30;;;;;;5043260;28;19913;-67
2022/07/30 09:58:22;;;;;;;;;;;24.90;51.20;;;;;;5042950;28;20007;-67
2022/07/30 10:00:48;;;;;;;;;;;25.00;50.80;;;;;;5048914;28;20039;-67
2022/07/30 10:03:14;;;;;;;;;;;25.00;47.90;;;;;;5043007;28;19948;-67
2022/07/30 10:05:50;;;;;;;;;;;25.00;48.90;;;;;;5038986;28;19913;-67
2022/07/30 10:08:16;;;;;;;;;;;25.10;49.80;;;;;;5038236;28;19944;-67
2022/07/30 10:10:42;;;;;;;;;;;25.20;49.90;;;;;;5035239;28;20031;-67
2022/07/30 10:13:08;;;;;;;;;;;25.30;49.50;;;;;;5038843;28;20299;-67
2022/07/30 10:15:35;;;;;;;;;;;25.50;49.10;;;;;;5056898;28;19909;-67
2022/07/30 10:18:02;;;;;;;;;;;25.50;49.40;;;;;;5040185;28;19913;-67
2022/07/30 10:20:27;;;;;;;;;;;25.70;49.20;;;;;;5038956;28;20002;-67
2022/07/30 10:22:53;;;;;;;;;;;25.80;47.60;;;;;;5035338;28;20062;-67
2022/07/30 10:25:20;;;;;;;;;;;25.80;47.80;;;;;;5040061;28;19913;-67
2022/07/30 10:27:46;;;;;;;;;;;25.80;48.30;;;;;;5044041;28;19913;-67
2022/07/30 10:30:11;;;;;;;;;;;25.90;48.10;;;;;;5053955;28;20347;-67
2022/07/30 10:32:37;;;;;;;;;;;26.00;46.60;;;;;;5043947;28;19912;-67
2022/07/30 10:35:03;;;;;;;;;;;26.00;46.70;;;;;;5044554;28;19909;-67
2022/07/30 10:37:30;;;;;;;;;;;26.10;46.90;;;;;;5066384;28;20007;-67
2022/07/30 10:39:58;;;;;;;;;;;26.20;47.10;;;;;;5049783;28;19974;-67
2022/07/30 10:42:32;;;;;;;;;;;26.40;45.00;;;;;;5041743;28;19921;-67
2022/07/30 10:45:25;;;;;;;;;;;26.30;45.20;;;;;;5063685;28;20450;-67
2022/07/30 10:47:52;;;;;;;;;;;26.30;45.70;;;;;;5033829;28;19963;-67
2022/07/30 10:50:18;;;;;;;;;;;26.50;46.00;;;;;;5041613;28;19920;-67
2022/07/30 10:52:50;;;;;;;;;;;26.80;44.90;;;;;;5040555;28;19908;-67
2022/07/30 10:55:21;;;;;;;;;;;26.90;43.50;;;;;;5047318;28;19909;-68
2022/07/30 10:58:00;;;;;;;;;;;27.00;44.10;;;;;;5065580;28;20264;-67
2022/07/30 11:00:25;;;;;;;;;;;27.20;43.40;;;;;;5045344;28;19970;-68
2022/07/30 11:03:10;;;;;;;;;;;27.20;43.40;;;;;;5042331;28;19996;-68
2022/07/30 11:05:36;;;;;;;;;;;27.30;43.70;;;;;;5040877;28;19916;-69
2022/07/30 11:08:20;;;;;;;;;;;27.40;43.60;;;;;;5040560;28;19913;-68
2022/07/30 11:10:45;;;;;;;;;;;27.50;43.90;;;;;;5032660;28;19916;-69
2022/07/30 11:13:11;;;;;;;;;;;27.70;44.10;;;;;;5043231;28;19921;-68
2022/07/30 11:15:56;;;;;;;;;;;27.90;44.00;;;;;;5037333;28;19970;-68
2022/07/30 11:18:23;;;;;;;;;;;28.00;43.80;;;;;;5038064;28;19924;-68
2022/07/30 11:21:07;;;;;;;;;;;28.20;43.60;;;;;;5063062;28;20279;-68
2022/07/30 11:23:37;;;;;;;;;;;28.20;43.10;;;;;;5037950;28;19913;-69
2022/07/30 11:26:03;;;;;;;;;;;28.20;42.20;;;;;;5039584;28;19917;-69
2022/07/30 11:28:35;;;;;;;;;;;28.20;41.30;;;;;;5040582;28;19966;-69
2022/07/30 11:31:01;;;;;;;;;;;28.00;41.30;;;;;;5058896;28;19967;-69
2022/07/30 11:33:27;;;;;;;;;;;28.00;41.00;;;;;;5042540;28;19947;-68
2022/07/30 11:36:06;;;;;;;;;;;28.00;41.70;;;;;;5044475;28;19948;-68
2022/07/30 11:38:50;;;;;;;;;;;28.00;42.10;;;;;;5046067;28;20015;-68
2022/07/30 11:41:16;;;;;;;;;;;28.30;42.20;;;;;;5038823;28;19965;-69
2022/07/30 11:43:42;;;;;;;;;;;28.60;42.10;;;;;;5046581;28;19944;-68
2022/07/30 11:46:08;;;;;;;;;;;28.70;42.20;;;;;;5048286;28;20299;-69
2022/07/30 11:48:35;;;;;;;;;;;28.80;42.40;;;;;;5045941;28;19912;-68
2022/07/30 11:51:01;;;;;;;;;;;28.90;42.10;;;;;;5041682;28;19909;-69
2022/07/30 11:53:27;;;;;;;;;;;28.80;42.40;;;;;;5041264;28;19919;-68
2022/07/30 11:55:52;;;;;;;;;;;28.80;41.00;;;;;;5040263;28;19975;-68
2022/07/30 11:58:25;;;;;;;;;;;28.70;41.80;;;;;;5041535;28;20143;-68
2022/07/30 12:00:50;;;;;;;;;;;28.60;41.70;;;;;;5048217;28;20360;-69
2022/07/30 12:03:17;;;;;;;;;;;28.60;42.00;;;;;;5060136;28;19923;-67
2022/07/30 12:05:43;;;;;;;;;;;28.50;42.30;;;;;;5038964;28;19916;-67
2022/07/30 12:08:10;;;;;;;;;;;28.50;42.20;;;;;;5041404;28;19940;-67
2022/07/30 12:10:37;;;;;;;;;;;28.40;42.30;;;;;;5036350;28;20004;-67
2022/07/30 12:13:13;;;;;;;;;;;28.40;42.50;;;;;;5040399;28;19925;-67
2022/07/30 12:15:46;;;;;;;;;;;28.40;42.60;;;;;;5041992;28;19908;-67
2022/07/30 12:18:12;;;;;;;;;;;28.50;43.00;;;;;;5048754;28;19908;-67
2022/07/30 12:20:41;;;;;;;;;;;28.90;43.10;;;;;;5049145;28;19917;-68
2022/07/30 12:23:13;;;;;;;;;;;29.20;42.70;;;;;;5039307;28;20383;-67
2022/07/30 12:25:42;;;;;;;;;;;29.20;42.30;;;;;;5042591;28;19909;-67
2022/07/30 12:28:09;;;;;;;;;;;29.30;42.90;;;;;;5041560;28;19920;-68
2022/07/30 12:30:38;;;;;;;;;;;29.60;42.60;;;;;;5042986;28;19913;-68
2022/07/30 12:33:04;;;;;;;;;;;29.80;42.10;;;;;;5046935;28;19955;-68
2022/07/30 12:35:43;;;;;;;;;;;29.80;41.40;;;;;;5038115;28;19916;-68
2022/07/30 12:38:09;;;;;;;;;;;29.80;41.70;;;;;;5043803;28;19931;-69
2022/07/30 12:40:49;;;;;;;;;;;29.80;41.70;;;;;;5033079;28;19938;-69
2022/07/30 12:43:14;;;;;;;;;;;29.70;42.00;;;;;;5036401;28;19979;-69
2022/07/30 12:45:40;;;;;;;;;;;29.60;42.20;;;;;;5042085;28;19920;-69
2022/07/30 12:48:09;;;;;;;;;;;29.50;42.50;;;;;;5037884;28;19999;-69
2022/07/30 12:50:34;;;;;;;;;;;29.50;42.70;;;;;;5040975;28;19908;-68
2022/07/30 12:53:00;;;;;;;;;;;29.80;41.20;;;;;;5055502;28;19916;-68
2022/07/30 12:55:30;;;;;;;;;;;29.60;41.50;;;;;;5035999;28;20383;-69
2022/07/30 12:58:05;;;;;;;;;;;29.60;42.10;;;;;;5045189;28;20332;-69
2022/07/30 13:00:52;;;;;;;;;;;29.60;42.20;;;;;;5046030;28;19991;-69
2022/07/30 13:03:21;;;;;;;;;;;29.50;42.20;;;;;;5036930;28;19920;-68
2022/07/30 13:05:48;;;;;;;;;;;29.40;42.60;;;;;;5059953;28;20470;-68
2022/07/30 13:08:14;;;;;;;;;;;29.70;42.80;;;;;;5040592;28;19962;-68
2022/07/30 13:10:52;;;;;;;;;;;30.00;42.70;;;;;;5044871;28;20372;-68
2022/07/30 13:13:18;;;;;;;;;;;30.10;42.40;;;;;;5041406;28;19920;-68
2022/07/30 13:15:43;;;;;;;;;;;29.90;42.60;;;;;;5043865;28;19971;-68
2022/07/30 13:18:09;;;;;;;;;;;29.70;42.80;;;;;;5048099;28;19917;-68
2022/07/30 13:20:35;;;;;;;;;;;29.80;42.30;;;;;;5045846;28;19921;-68
2022/07/30 13:23:00;;;;;;;;;;;29.60;41.80;;;;;;5041982;28;20004;-68
2022/07/30 13:25:26;;;;;;;;;;;29.20;42.20;;;;;;5044857;28;19919;-68
2022/07/30 13:27:51;;;;;;;;;;;28.90;42.80;;;;;;5047882;28;19935;-69
2022/07/30 13:30:17;;;;;;;;;;;28.90;43.60;;;;;;5046749;28;20666;-69
2022/07/30 13:32:42;;;;;;;;;;;28.90;43.90;;;;;;5044610;28;19956;-69
2022/07/30 13:35:08;;;;;;;;;;;28.90;44.00;;;;;;5043003;28;19913;-69
2022/07/30 13:37:34;;;;;;;;;;;29.00;43.40;;;;;;5048170;28;19920;-69
2022/07/30 13:39:59;;;;;;;;;;;29.10;43.60;;;;;;5060752;28;19917;-69
2022/07/30 13:42:25;;;;;;;;;;;29.30;43.50;;;;;;5041067;28;20486;-69
2022/07/30 13:44:50;;;;;;;;;;;29.30;43.00;;;;;;5044093;28;19921;-69
2022/07/30 13:47:16;;;;;;;;;;;29.20;42.80;;;;;;5042061;28;20007;-69
2022/07/30 13:49:45;;;;;;;;;;;29.10;43.20;;;;;;5042050;28;19919;-69
2022/07/30 13:52:10;;;;;;;;;;;29.20;43.10;;;;;;5039054;28;19916;-69
2022/07/30 13:54:36;;;;;;;;;;;29.20;42.70;;;;;;5057171;28;19935;-69
2022/07/30 13:57:02;;;;;;;;;;;29.20;43.10;;;;;;5058892;28;20300;-69
2022/07/30 13:59:27;;;;;;;;;;;29.30;43.10;;;;;;5043907;28;19917;-69
2022/07/30 14:01:54;;;;;;;;;;;29.60;42.90;;;;;;5039104;28;20410;-69
2022/07/30 14:04:20;;;;;;;;;;;29.80;41.90;;;;;;5047170;28;20387;-69
2022/07/30 14:06:45;;;;;;;;;;;29.90;41.80;;;;;;5045810;28;19963;-69
2022/07/30 14:09:11;;;;;;;;;;;30.10;41.90;;;;;;5049614;28;19913;-68
2022/07/30 14:11:36;;;;;;;;;;;30.50;41.70;;;;;;5046640;28;19928;-69
2022/07/30 14:14:03;;;;;;;;;;;30.80;41.10;;;;;;5060627;28;20299;-70
2022/07/30 14:16:28;;;;;;;;;;;31.10;41.00;;;;;;5052610;28;19913;-69
2022/07/30 14:18:56;;;;;;;;;;;31.30;40.10;;;;;;5053313;28;19909;-70